Главная страница
METAR-TAF:

METAR-TAF

Аэропорты :

Форт-Мид, Мэриленд, США

широта: 39-05N, долгота: 076-46W, высота над уровнем моря: 46 м

Текущие метеонаблюдения

Эта сводка был подготовлена 15 минут назад, в 13:35 UTC
Ветер 3 Узел от южный
Температура 25°C
Влажность 89%
Давление 1022 hPa
Видимость: 16.1 км
ясное небо

METAR: KFME 091335Z AUTO 19003KT 10SM CLR 25/23 A3017 RMK AO1

Время: 09:50 (13:50 UTC)


TAF: отсутствует

Метеонаблюдения и прогнозы для более 4000 аэропортов (сводки METAR и TAF).

Имеющиеся станции представлены на карте желтыми и красными точками.

Чтобы увидеть название станции, наведите на нее мышь.

Затем щелкните, чтобы увидеть метеонаблюдения и метеопрогнозы.

Управление картой: чтобы увеличить масштаб, щелкните зеленые кнопки с черным крестиком; чтобы уменьшить масштаб, щелкните зеленую кнопку с тире; для просмотра соседних карт щелкайте зеленые стрелки.


METAR-TAF: